Hovedside
METAR-TAF:

METAR-TAF

Lufthavner :

Umeå lufthavn

Umeå, Sverige

breddegrad: 63-48N, lengdegrad: 020-17E, høyde over havet: 7 m

Gjeldene værobservasjon

Denne rapporten ble laget for 33 minutter siden, klokken 04:50 UTC
Vind 8 kt fra Nord-nordøst
Temperatur -5°C
Luftfuktighet 100%
Trykk 999 hPa
Sikt: 3300 m
Overskyet i en høyde av 600 ft
kornsnø

METAR: ESNU 290450Z 02008KT 3300 SG OVC006 M05/M05 Q0999 R14/72//43

Tid: 06:23 (05:23 UTC)

Varsel

Denne rapporten ble laget for 2 timer og 53 minutter siden, klokken 02:30 UTC
Varsel gyldig fra 29. klokken 03 UTC til 29. klokken 12 UTC
Vind 6 kt fra Nord-nordøst
Sikt: 5000 m
Spredte skyer i en høyde av 700 ft
Brutte skyer i en høyde av 1500 ft
lett snø
Midlertidig
fra 29. klokken 03 UTC til 29. klokken 12 UTC
Sikt: 2000 m
Brutte skyer i en høyde av 300 ft
snø, dis

TAF: ESNU 290230Z 2903/2912 02006KT 5000 -SN SCT007 BKN015 TEMPO 2903/2912 2000 SN BR BKN003

Værobservasjoner og værvarsel for over 4000 flyplasser (METAR- og TAF-rapporter).

Tilgjengelige stasjoner er representert av de røde og gule prikkene på kartet.

Hold musepekeren over prikken for å se navnet på stasjonen.

Klikk så for å se værobservasjoner og -varsler.

For å forandre kartet kan du klikke på den grønne knappen med svart kryss for å zoome inn, på den grønne knappen med strek for å zoome ut, eller på de grønne pilene for å se tilstøtende kart.


METAR-TAF: